Time;durP1;ratioP1;P1;durP2;ratioP2;P2;SDS_P1;SDS_P2;PMS_P1;PMS_P2;Temp;Humidity;BMP_temperature;BMP_pressure;BME280_temperature;BME280_humidity;BME280_pressure;Samples;Min_cycle;Max_cycle;Signal;HPM_P1;HPM_P2
2022/01/29 00:00:09;;;;;;;69.07;37.63;;;6.90;99.90;;;;;;5072570;28;20115;-74
2022/01/29 00:02:35;;;;;;;73.95;38.70;;;6.90;99.90;;;;;;5041602;28;20545;-73
2022/01/29 00:05:01;;;;;;;69.80;36.38;;;6.90;99.90;;;;;;5068725;28;20049;-73
2022/01/29 00:07:27;;;;;;;78.32;38.80;;;6.90;99.90;;;;;;5035921;28;20127;-73
2022/01/29 00:10:00;;;;;;;77.30;38.83;;;6.90;99.90;;;;;;5052534;28;20051;-73
2022/01/29 00:12:25;;;;;;;73.75;38.25;;;6.90;99.90;;;;;;5036093;28;20048;-73
2022/01/29 00:14:51;;;;;;;71.38;37.90;;;6.90;99.90;;;;;;5035616;28;20063;-74
2022/01/29 00:17:17;;;;;;;71.05;39.70;;;6.90;99.90;;;;;;5052042;28;20040;-74
2022/01/29 00:19:42;;;;;;;72.75;38.60;;;6.90;99.90;;;;;;5051921;28;20044;-74
2022/01/29 00:22:08;;;;;;;70.40;38.75;;;6.90;99.90;;;;;;5052371;28;20037;-73
2022/01/29 00:24:34;;;;;;;76.70;39.42;;;6.90;99.90;;;;;;5052110;28;20044;-75
2022/01/29 00:27:02;;;;;;;71.60;40.25;;;6.90;99.90;;;;;;5052545;28;20052;-74
2022/01/29 00:29:29;;;;;;;65.93;36.25;;;6.90;99.90;;;;;;5058380;28;20047;-74
2022/01/29 00:31:55;;;;;;;71.38;40.10;;;6.90;99.90;;;;;;5076262;28;20044;-73
2022/01/29 00:34:21;;;;;;;77.18;40.72;;;6.90;99.90;;;;;;5058686;28;20040;-74
2022/01/29 00:36:46;;;;;;;76.95;40.63;;;6.90;99.90;;;;;;5059509;28;20048;-74
2022/01/29 00:39:12;;;;;;;72.53;39.33;;;6.90;99.90;;;;;;5076561;28;20044;-74
2022/01/29 00:41:38;;;;;;;72.38;38.42;;;6.90;99.90;;;;;;5076032;28;20040;-73
2022/01/29 00:44:04;;;;;;;70.60;37.65;;;6.90;99.90;;;;;;5075700;28;20043;-74
2022/01/29 00:46:29;;;;;;;69.47;38.05;;;6.90;99.90;;;;;;5075820;28;20044;-74
2022/01/29 00:48:55;;;;;;;74.70;38.05;;;6.90;99.90;;;;;;5075319;28;20548;-74
2022/01/29 00:51:21;;;;;;;75.60;38.60;;;6.90;99.90;;;;;;5076260;28;20064;-74
2022/01/29 00:53:46;;;;;;;65.22;34.40;;;6.90;99.90;;;;;;5059014;28;20444;-74
2022/01/29 00:56:12;;;;;;;72.63;37.72;;;6.90;99.90;;;;;;5075804;28;20044;-74
2022/01/29 00:58:38;;;;;;;78.57;39.17;;;6.90;99.90;;;;;;5075954;28;20080;-74
2022/01/29 01:01:03;;;;;;;68.38;39.08;;;6.90;99.90;;;;;;5072689;28;20082;-74
2022/01/29 01:03:29;;;;;;;73.00;38.53;;;6.80;99.90;;;;;;5055295;28;20053;-73
2022/01/29 01:05:55;;;;;;;69.80;37.30;;;6.90;99.90;;;;;;5055658;28;20163;-74
2022/01/29 01:08:20;;;;;;;75.05;38.60;;;6.80;99.90;;;;;;5055520;28;20048;-73
2022/01/29 01:10:46;;;;;;;74.45;37.75;;;6.80;99.90;;;;;;5055632;28;20095;-72
2022/01/29 01:13:11;;;;;;;75.82;38.45;;;6.80;99.90;;;;;;5072022;28;20440;-74
2022/01/29 01:15:37;;;;;;;71.60;35.80;;;6.80;99.90;;;;;;5055294;28;20466;-74
2022/01/29 01:18:03;;;;;;;75.97;37.90;;;6.80;99.90;;;;;;5054947;28;20052;-74
2022/01/29 01:20:28;;;;;;;68.97;38.15;;;6.80;99.90;;;;;;5055555;28;20487;-73
2022/01/29 01:22:54;;;;;;;72.00;39.15;;;6.80;99.90;;;;;;5055610;28;20383;-74
2022/01/29 01:25:20;;;;;;;80.38;39.90;;;6.70;99.90;;;;;;5055973;28;20037;-73
2022/01/29 01:27:46;;;;;;;78.38;36.10;;;6.70;99.90;;;;;;5074544;28;20036;-74
2022/01/29 01:30:12;;;;;;;71.82;37.72;;;6.70;99.90;;;;;;5058016;28;20513;-74
2022/01/29 01:32:38;;;;;;;71.10;38.00;;;6.70;99.90;;;;;;5074819;28;20037;-73
2022/01/29 01:35:15;;;;;;;74.00;38.35;;;6.70;99.90;;;;;;5056401;28;20032;-74
2022/01/29 01:37:53;;;;;;;70.30;37.97;;;6.70;99.90;;;;;;5055361;28;20041;-73
2022/01/29 01:40:19;;;;;;;82.03;36.92;;;6.80;99.90;;;;;;5054994;28;20037;-73
2022/01/29 01:42:46;;;;;;;76.03;37.08;;;6.70;99.90;;;;;;5037410;28;20048;-73
2022/01/29 01:45:13;;;;;;;70.40;35.28;;;6.80;99.90;;;;;;5054436;28;20428;-74
2022/01/29 01:47:39;;;;;;;75.68;36.80;;;6.80;99.90;;;;;;5038055;28;20387;-72
2022/01/29 01:50:06;;;;;;;68.75;35.05;;;6.80;99.90;;;;;;5054557;28;20041;-74
2022/01/29 01:52:32;;;;;;;69.03;35.58;;;6.80;99.90;;;;;;5038254;28;20048;-74
2022/01/29 01:54:58;;;;;;;67.10;33.75;;;6.80;99.90;;;;;;5054525;28;20042;-74
2022/01/29 01:57:24;;;;;;;71.00;34.28;;;6.90;99.90;;;;;;5054490;28;20086;-75
2022/01/29 01:59:50;;;;;;;66.57;34.53;;;6.80;99.90;;;;;;5037567;28;20048;-74
2022/01/29 02:02:16;;;;;;;66.07;34.33;;;6.90;99.90;;;;;;5054677;28;20076;-74
2022/01/29 02:04:41;;;;;;;73.40;35.08;;;6.90;99.90;;;;;;5054490;28;20049;-74
2022/01/29 02:07:07;;;;;;;70.13;34.22;;;6.90;99.90;;;;;;5072315;28;20524;-73
2022/01/29 02:09:33;;;;;;;69.13;34.17;;;6.90;99.90;;;;;;5074618;28;20045;-74
2022/01/29 02:12:02;;;;;;;66.95;33.88;;;6.90;99.90;;;;;;5057501;28;20028;-74
2022/01/29 02:14:31;;;;;;;64.43;32.07;;;6.90;99.90;;;;;;5057339;28;20090;-74
2022/01/29 02:16:59;;;;;;;56.35;28.63;;;6.90;99.90;;;;;;5074298;28;20040;-74
2022/01/29 02:19:25;;;;;;;65.82;32.10;;;6.90;99.90;;;;;;5074335;28;20082;-73
2022/01/29 02:21:51;;;;;;;58.95;30.17;;;6.90;99.90;;;;;;5057718;28;20041;-74
2022/01/29 02:24:16;;;;;;;67.80;31.58;;;7.00;99.90;;;;;;5074229;28;20391;-74
2022/01/29 02:26:42;;;;;;;60.85;31.92;;;7.00;99.90;;;;;;5057242;28;20135;-74
2022/01/29 02:29:08;;;;;;;59.63;28.50;;;7.00;99.90;;;;;;5073399;28;20044;-74
2022/01/29 02:31:34;;;;;;;59.25;29.65;;;7.00;99.90;;;;;;5057929;28;20036;-73
2022/01/29 02:33:59;;;;;;;67.68;30.17;;;7.00;99.90;;;;;;5074424;28;20097;-74
2022/01/29 02:36:25;;;;;;;53.47;27.70;;;7.00;99.90;;;;;;5057322;28;20439;-74
2022/01/29 02:38:51;;;;;;;62.17;31.92;;;7.10;99.90;;;;;;5041354;28;20508;-73
2022/01/29 02:41:19;;;;;;;65.30;30.85;;;7.10;99.90;;;;;;5053835;28;20099;-74
2022/01/29 02:43:47;;;;;;;64.65;31.83;;;7.10;99.90;;;;;;5053289;28;20067;-74
2022/01/29 02:48:50;;;;;;;62.63;30.77;;;7.10;99.90;;;;;;5053522;28;20048;-73
2022/01/29 02:51:16;;;;;;;63.95;31.27;;;7.10;99.90;;;;;;5036938;28;20045;-73
2022/01/29 02:53:42;;;;;;;64.32;29.80;;;7.10;99.90;;;;;;5052478;28;20044;-73
2022/01/29 02:56:09;;;;;;;63.47;31.15;;;7.10;99.90;;;;;;5053157;28;20037;-73
2022/01/29 02:58:35;;;;;;;66.00;31.40;;;7.10;99.90;;;;;;5054208;28;20063;-74
2022/01/29 03:01:01;;;;;;;68.35;32.78;;;7.10;99.90;;;;;;5036809;28;20099;-73
2022/01/29 03:03:27;;;;;;;71.10;33.35;;;7.10;99.90;;;;;;5053155;28;20044;-73
2022/01/29 03:05:53;;;;;;;66.57;30.88;;;7.10;99.90;;;;;;5053256;28;20364;-73
2022/01/29 03:08:18;;;;;;;67.85;32.88;;;7.10;99.90;;;;;;5053071;28;20040;-73
2022/01/29 03:10:47;;;;;;;64.45;31.55;;;7.10;99.90;;;;;;5066407;28;20036;-73
2022/01/29 03:13:13;;;;;;;68.22;32.60;;;7.10;99.90;;;;;;5073837;28;20059;-74
2022/01/29 03:15:39;;;;;;;71.07;32.53;;;7.10;99.90;;;;;;5073210;28;20032;-74
2022/01/29 03:18:05;;;;;;;69.00;32.42;;;7.10;99.90;;;;;;5072437;28;20040;-73
2022/01/29 03:20:31;;;;;;;73.75;32.80;;;7.10;99.90;;;;;;5055327;28;20041;-74
2022/01/29 03:22:57;;;;;;;65.82;31.25;;;7.10;99.90;;;;;;5052874;28;20037;-72
2022/01/29 03:25:24;;;;;;;70.68;32.67;;;7.10;99.90;;;;;;5052509;28;20090;-74
2022/01/29 03:27:51;;;;;;;71.32;32.85;;;7.20;99.90;;;;;;5036386;28;20045;-75
2022/01/29 03:30:17;;;;;;;75.13;33.88;;;7.20;99.90;;;;;;5036427;28;20048;-73
2022/01/29 03:32:42;;;;;;;75.65;33.63;;;7.20;99.90;;;;;;5052905;28;20029;-73
2022/01/29 03:35:09;;;;;;;75.28;33.60;;;7.20;99.90;;;;;;5052617;28;20498;-73
2022/01/29 03:37:35;;;;;;;77.28;32.25;;;7.20;99.90;;;;;;5036278;28;20045;-73
2022/01/29 03:40:03;;;;;;;67.55;31.85;;;7.20;99.90;;;;;;5039117;28;20040;-74
2022/01/29 03:42:34;;;;;;;69.18;32.28;;;7.20;99.90;;;;;;5072901;28;20112;-73
2022/01/29 03:44:59;;;;;;;75.07;32.90;;;7.20;99.90;;;;;;5072725;28;20059;-74
2022/01/29 03:47:25;;;;;;;71.03;32.30;;;7.20;99.90;;;;;;5073640;28;20044;-72
2022/01/29 03:49:51;;;;;;;84.85;34.10;;;7.20;99.90;;;;;;5072450;28;20463;-72
2022/01/29 03:52:16;;;;;;;78.15;34.28;;;7.20;99.90;;;;;;5055709;28;20072;-73
2022/01/29 03:54:43;;;;;;;81.78;35.08;;;7.20;99.90;;;;;;5072149;28;20040;-72
2022/01/29 03:57:09;;;;;;;82.20;34.15;;;7.20;99.90;;;;;;5073162;28;20080;-74
2022/01/29 03:59:35;;;;;;;74.32;33.20;;;7.20;99.90;;;;;;5072003;28;20475;-72
2022/01/29 04:02:00;;;;;;;82.07;35.60;;;7.20;99.90;;;;;;5055615;28;20128;-73
2022/01/29 04:04:26;;;;;;;74.75;32.70;;;7.20;99.90;;;;;;5071891;28;20106;-73
2022/01/29 04:06:52;;;;;;;80.93;33.60;;;7.20;99.90;;;;;;5072086;28;20055;-74
2022/01/29 04:09:19;;;;;;;74.60;34.10;;;7.20;99.90;;;;;;5071775;28;20131;-73
2022/01/29 04:11:45;;;;;;;87.60;35.05;;;7.30;99.90;;;;;;5071295;28;20127;-73
2022/01/29 04:14:18;;;;;;;78.85;34.05;;;7.30;99.90;;;;;;5052478;28;20131;-73
2022/01/29 04:16:45;;;;;;;56.25;27.08;;;7.30;99.90;;;;;;5052285;28;20049;-73
2022/01/29 04:19:11;;;;;;;82.43;33.67;;;7.30;99.90;;;;;;5035490;28;20080;-73
2022/01/29 04:21:37;;;;;;;72.07;31.80;;;7.30;99.90;;;;;;5051796;28;20040;-73
2022/01/29 04:24:04;;;;;;;77.70;32.63;;;7.30;99.90;;;;;;5035441;28;20561;-72
2022/01/29 04:26:34;;;;;;;81.45;33.75;;;7.30;99.90;;;;;;5052720;28;20044;-73
2022/01/29 04:29:00;;;;;;;;;;;7.30;99.90;;;;;;5052718;28;20037;-73
2022/01/29 04:31:35;;;;;;;72.28;31.63;;;7.30;99.90;;;;;;5035471;28;20274;-73
2022/01/29 04:34:01;;;;;;;78.22;32.47;;;7.40;99.90;;;;;;5052940;28;20091;-73
2022/01/29 04:36:27;;;;;;;74.30;32.53;;;7.40;99.90;;;;;;5052180;28;20387;-73
2022/01/29 04:38:52;;;;;;;69.72;30.67;;;7.40;99.90;;;;;;5035732;28;20047;-74
2022/01/29 04:41:21;;;;;;;71.03;31.58;;;7.50;99.90;;;;;;5052088;28;20044;-73
2022/01/29 04:43:47;;;;;;;60.45;27.75;;;7.50;99.90;;;;;;5035256;28;20049;-74
2022/01/29 04:46:12;;;;;;;66.68;30.77;;;7.50;99.90;;;;;;5072145;28;20043;-73
2022/01/29 04:48:38;;;;;;;70.78;30.60;;;7.60;99.90;;;;;;5071680;28;20041;-74
2022/01/29 04:51:04;;;;;;;60.80;29.85;;;7.50;99.90;;;;;;5071632;28;20040;-73
2022/01/29 04:53:29;;;;;;;62.53;29.17;;;7.60;99.90;;;;;;5072197;28;20041;-72
2022/01/29 04:55:55;;;;;;;60.28;27.85;;;7.60;99.90;;;;;;5072005;28;20036;-73
2022/01/29 04:58:21;;;;;;;74.25;29.75;;;7.60;99.90;;;;;;5055144;28;20457;-72
2022/01/29 05:00:46;;;;;;;67.28;28.50;;;7.70;99.90;;;;;;5055358;28;20079;-72
2022/01/29 05:03:14;;;;;;;62.38;28.50;;;7.80;99.90;;;;;;5071734;28;20076;-73
2022/01/29 05:05:40;;;;;;;55.63;25.20;;;7.70;99.90;;;;;;5071056;28;20467;-71
2022/01/29 05:08:06;;;;;;;60.92;27.85;;;7.70;99.90;;;;;;5054311;28;20078;-73
2022/01/29 05:10:33;;;;;;;56.13;25.33;;;7.70;99.90;;;;;;5071567;28;20072;-74
2022/01/29 05:13:05;;;;;;;64.93;27.70;;;7.80;99.90;;;;;;5071876;28;20074;-73
2022/01/29 05:29:03;;;;;;;46.53;22.92;;;8.00;99.90;;;;;;5055139;28;20037;-73
2022/01/29 05:31:29;;;;;;;46.95;24.48;;;8.00;99.90;;;;;;5055112;28;20391;-74
2022/01/29 05:33:54;;;;;;;39.78;21.40;;;8.00;99.90;;;;;;5055009;28;20490;-74
2022/01/29 05:36:21;;;;;;;47.63;22.55;;;8.10;99.90;;;;;;5038499;28;20049;-75
2022/01/29 05:38:47;;;;;;;47.08;22.23;;;8.10;99.90;;;;;;5054981;28;20041;-74
2022/01/29 05:41:13;;;;;;;48.92;22.33;;;8.10;99.90;;;;;;5071792;28;20048;-73
2022/01/29 05:43:38;;;;;;;42.75;21.42;;;8.10;99.90;;;;;;5074942;28;20047;-73
2022/01/29 05:46:04;;;;;;;44.83;21.48;;;8.20;99.90;;;;;;5058155;28;20040;-73
2022/01/29 05:48:30;;;;;;;41.47;21.27;;;8.20;99.90;;;;;;5069017;28;20108;-74
2022/01/29 05:50:56;;;;;;;40.15;21.10;;;8.20;99.90;;;;;;5054675;28;20095;-73
2022/01/29 05:53:22;;;;;;;39.65;21.20;;;8.20;99.90;;;;;;5038504;28;20041;-73
2022/01/29 05:55:47;;;;;;;44.13;20.63;;;8.20;99.90;;;;;;5038131;28;20387;-72
2022/01/29 05:58:13;;;;;;;43.63;21.20;;;8.20;99.90;;;;;;5038175;28;20467;-73
2022/01/29 06:00:39;;;;;;;43.53;21.23;;;8.30;99.90;;;;;;5054730;28;20052;-73
2022/01/29 06:03:09;;;;;;;40.80;20.23;;;8.30;99.90;;;;;;5037972;28;20084;-73
2022/01/29 06:05:36;;;;;;;41.38;21.73;;;8.30;99.90;;;;;;5054557;28;20100;-74
2022/01/29 06:08:02;;;;;;;38.40;21.15;;;8.30;99.90;;;;;;5053968;28;20116;-73
2022/01/29 06:10:28;;;;;;;38.92;21.38;;;8.30;99.90;;;;;;5037618;28;20391;-73
2022/01/29 06:13:08;;;;;;;42.33;20.52;;;8.30;99.90;;;;;;5054559;28;20094;-73
2022/01/29 06:15:41;;;;;;;43.40;21.10;;;8.30;99.90;;;;;;5054385;28;20036;-73
2022/01/29 06:18:10;;;;;;;42.25;21.05;;;8.30;99.90;;;;;;5054254;28;20047;-73
2022/01/29 06:20:36;;;;;;;34.78;19.65;;;8.30;99.90;;;;;;5053755;28;20099;-72
2022/01/29 06:23:03;;;;;;;40.58;21.58;;;8.30;99.90;;;;;;5063239;28;20118;-73
2022/01/29 06:25:29;;;;;;;42.45;21.73;;;8.30;99.90;;;;;;5074750;28;20040;-73
2022/01/29 06:27:55;;;;;;;40.08;20.63;;;8.30;99.90;;;;;;5056897;28;20498;-72
2022/01/29 06:30:21;;;;;;;33.45;18.05;;;8.40;99.90;;;;;;5073968;28;20486;-72
2022/01/29 06:32:47;;;;;;;41.78;20.92;;;8.40;99.90;;;;;;5057339;28;20041;-74
2022/01/29 06:35:12;;;;;;;36.55;20.65;;;8.40;99.90;;;;;;5073614;28;20136;-72
2022/01/29 06:37:39;;;;;;;36.63;19.55;;;8.40;99.90;;;;;;5073932;28;20090;-73
2022/01/29 06:40:05;;;;;;;34.70;19.05;;;8.40;99.90;;;;;;5073309;28;20360;-72
2022/01/29 06:42:31;;;;;;;38.63;20.00;;;8.50;99.90;;;;;;5073742;28;20090;-73
2022/01/29 06:44:57;;;;;;;35.38;18.65;;;8.50;99.90;;;;;;5073529;28;20044;-72
2022/01/29 06:47:22;;;;;;;36.55;19.77;;;8.40;99.90;;;;;;5073662;28;20040;-74
2022/01/29 06:49:48;;;;;;;30.50;17.98;;;8.50;99.90;;;;;;5073318;28;20426;-72
2022/01/29 06:52:14;;;;;;;36.92;19.90;;;8.60;99.90;;;;;;5073689;28;20047;-72
2022/01/29 06:54:40;;;;;;;36.45;19.45;;;8.50;99.90;;;;;;5074090;28;20051;-74
2022/01/29 06:57:06;;;;;;;32.92;18.30;;;8.50;99.90;;;;;;5055974;28;20060;-72
2022/01/29 06:59:31;;;;;;;34.08;18.35;;;8.50;99.90;;;;;;5053420;28;20044;-74
2022/01/29 07:01:57;;;;;;;32.22;18.00;;;8.50;99.90;;;;;;5053364;28;20094;-73
2022/01/29 07:04:22;;;;;;;31.38;17.08;;;8.50;99.90;;;;;;5036049;28;20095;-74
2022/01/29 07:06:48;;;;;;;33.80;18.13;;;8.50;99.90;;;;;;5054060;28;20107;-73
2022/01/29 07:09:14;;;;;;;30.65;17.02;;;8.50;99.90;;;;;;5053501;28;20479;-73
2022/01/29 07:11:43;;;;;;;33.85;17.00;;;8.50;99.90;;;;;;5036604;28;20044;-73
2022/01/29 07:14:15;;;;;;;28.83;17.80;;;8.50;99.90;;;;;;5053166;28;20487;-72
2022/01/29 07:16:40;;;;;;;26.50;16.95;;;8.60;99.90;;;;;;5053130;28;20048;-73
2022/01/29 07:19:06;;;;;;;33.10;17.15;;;8.60;99.90;;;;;;5036195;28;20044;-74
2022/01/29 07:21:32;;;;;;;24.48;15.10;;;8.60;99.90;;;;;;5053358;28;20033;-74
2022/01/29 07:23:57;;;;;;;31.65;15.27;;;8.60;99.90;;;;;;5053107;28;20418;-72
2022/01/29 07:26:23;;;;;;;31.20;16.08;;;8.60;99.90;;;;;;5053043;28;20052;-74
2022/01/29 07:28:49;;;;;;;29.20;16.63;;;8.60;99.90;;;;;;5053293;28;20069;-72
2022/01/29 07:31:14;;;;;;;31.02;16.55;;;8.60;99.90;;;;;;5052968;28;20049;-72
2022/01/29 07:33:40;;;;;;;30.70;14.30;;;8.50;99.90;;;;;;5068755;28;20074;-74
2022/01/29 07:36:06;;;;;;;28.40;16.40;;;8.50;99.90;;;;;;5073063;28;20076;-72
2022/01/29 07:38:31;;;;;;;27.35;15.10;;;8.60;99.90;;;;;;5072815;28;20405;-74
2022/01/29 07:40:57;;;;;;;32.55;16.38;;;8.60;99.90;;;;;;5055667;28;20094;-72
2022/01/29 07:43:23;;;;;;;28.10;15.70;;;8.60;99.90;;;;;;5072683;28;20094;-72
2022/01/29 07:45:48;;;;;;;31.40;15.73;;;8.60;99.90;;;;;;5072499;28;20044;-73
2022/01/29 07:48:14;;;;;;;32.53;15.90;;;8.60;99.90;;;;;;5071948;28;20032;-73
2022/01/29 07:50:40;;;;;;;29.95;16.33;;;8.50;99.90;;;;;;5072594;28;20483;-73
2022/01/29 07:53:05;;;;;;;28.85;16.25;;;8.60;99.90;;;;;;5072754;28;20123;-73
2022/01/29 07:55:31;;;;;;;33.38;16.85;;;8.60;99.90;;;;;;5072589;28;20360;-73
2022/01/29 07:57:58;;;;;;;32.58;16.75;;;8.60;99.90;;;;;;5055856;28;20097;-73
2022/01/29 08:00:24;;;;;;;29.60;16.63;;;8.60;99.90;;;;;;5072527;28;20440;-73
2022/01/29 08:02:50;;;;;;;34.42;17.13;;;8.60;99.90;;;;;;5052172;28;20474;-73
2022/01/29 08:05:15;;;;;;;31.90;16.75;;;8.60;99.90;;;;;;5052404;28;20044;-73
2022/01/29 08:07:41;;;;;;;29.08;16.40;;;8.50;99.90;;;;;;5034630;28;20481;-73
2022/01/29 08:10:08;;;;;;;34.35;16.88;;;8.50;99.90;;;;;;5052142;28;20041;-73
2022/01/29 08:12:34;;;;;;;38.30;16.52;;;8.50;99.90;;;;;;5052302;28;20094;-73
2022/01/29 08:15:00;;;;;;;25.70;14.07;;;8.50;99.90;;;;;;5052410;28;20102;-72
2022/01/29 08:17:26;;;;;;;32.88;17.45;;;8.60;99.90;;;;;;5051971;28;20379;-72
2022/01/29 08:19:52;;;;;;;29.30;16.50;;;8.60;99.90;;;;;;5053024;28;20049;-74
2022/01/29 08:22:18;;;;;;;32.78;16.08;;;8.50;99.90;;;;;;5070365;28;20044;-73
2022/01/29 08:24:43;;;;;;;32.72;16.13;;;8.60;99.90;;;;;;5058879;28;20036;-72
2022/01/29 08:27:09;;;;;;;32.85;17.45;;;8.60;99.90;;;;;;5063022;28;20033;-74
2022/01/29 08:29:35;;;;;;;26.23;14.30;;;8.60;99.90;;;;;;5071456;28;20041;-73
2022/01/29 08:32:02;;;;;;;32.33;15.50;;;8.60;99.90;;;;;;5069747;28;20063;-73
2022/01/29 08:34:28;;;;;;;26.63;14.82;;;8.70;99.90;;;;;;5072831;28;20044;-73
2022/01/29 08:36:54;;;;;;;27.02;13.75;;;8.70;99.90;;;;;;5072243;28;20048;-73
2022/01/29 08:39:20;;;;;;;27.83;14.63;;;8.70;99.90;;;;;;5069548;28;20158;-72
2022/01/29 08:41:46;;;;;;;25.40;13.57;;;8.80;99.90;;;;;;5052078;28;20503;-73
2022/01/29 08:44:11;;;;;;;28.42;14.45;;;8.80;99.90;;;;;;5052084;28;20044;-73
2022/01/29 08:46:37;;;;;;;22.80;14.43;;;8.80;99.90;;;;;;5064887;28;20036;-72
2022/01/29 08:49:03;;;;;;;20.92;11.52;;;8.80;99.90;;;;;;5065583;28;20434;-72
2022/01/29 08:51:28;;;;;;;25.27;13.48;;;8.90;99.90;;;;;;5052141;28;20077;-73
2022/01/29 08:53:54;;;;;;;20.67;12.30;;;8.90;99.90;;;;;;5055953;28;20383;-73
2022/01/29 08:56:20;;;;;;;20.42;11.80;;;8.90;99.90;;;;;;5056026;28;20040;-73
2022/01/29 08:58:46;;;;;;;23.83;12.10;;;8.90;99.90;;;;;;5055542;28;20483;-73
2022/01/29 09:01:12;;;;;;;19.38;11.52;;;9.00;99.90;;;;;;5055395;28;20487;-73
2022/01/29 09:03:38;;;;;;;21.50;11.88;;;9.00;99.90;;;;;;5056163;28;20107;-73
2022/01/29 09:06:04;;;;;;;17.38;10.43;;;9.00;99.90;;;;;;5055875;28;20052;-73
2022/01/29 09:08:30;;;;;;;21.40;10.95;;;9.00;99.90;;;;;;5055431;28;20043;-73
2022/01/29 09:10:57;;;;;;;25.45;11.48;;;9.10;99.90;;;;;;5055726;28;20471;-73
2022/01/29 09:13:27;;;;;;;18.92;10.88;;;9.00;99.90;;;;;;5038945;28;20048;-73
2022/01/29 09:15:53;;;;;;;21.67;10.35;;;9.10;99.90;;;;;;5038690;28;20044;-74
2022/01/29 09:18:19;;;;;;;19.02;10.52;;;9.10;99.90;;;;;;5055179;28;20041;-73
2022/01/29 09:20:45;;;;;;;19.45;11.10;;;9.10;99.90;;;;;;5055477;28;20356;-73
2022/01/29 09:23:11;;;;;;;22.95;10.68;;;9.10;99.90;;;;;;5055599;28;20044;-74
2022/01/29 09:25:38;;;;;;;19.60;9.85;;;9.10;99.90;;;;;;5055218;28;20047;-73
2022/01/29 09:28:05;;;;;;;16.45;10.05;;;9.10;99.90;;;;;;5055224;28;20048;-73
2022/01/29 09:30:31;;;;;;;19.85;10.52;;;9.20;99.90;;;;;;5054881;28;20039;-74
2022/01/29 09:32:57;;;;;;;17.02;9.98;;;9.20;99.90;;;;;;5056804;28;20116;-73
2022/01/29 09:35:24;;;;;;;16.33;9.45;;;9.20;99.90;;;;;;5063673;28;20116;-72
2022/01/29 09:37:49;;;;;;;18.20;9.57;;;9.10;99.90;;;;;;5070783;28;20032;-74
2022/01/29 09:40:16;;;;;;;17.50;9.38;;;9.20;99.90;;;;;;5055243;28;20044;-73
2022/01/29 09:42:44;;;;;;;17.30;9.10;;;9.30;99.90;;;;;;5054856;28;20041;-72
2022/01/29 09:45:13;;;;;;;16.88;9.43;;;9.20;99.90;;;;;;5054509;28;20379;-74
2022/01/29 09:47:43;;;;;;;16.17;8.82;;;9.30;99.90;;;;;;5039499;28;20041;-73
2022/01/29 09:50:10;;;;;;;;;;;9.30;99.90;;;;;;5058717;28;20040;-74
2022/01/29 09:52:35;;;;;;;15.25;9.13;;;9.30;99.90;;;;;;5071371;28;19923;-73
2022/01/29 09:55:01;;;;;;;22.45;10.32;;;9.40;99.90;;;;;;5054677;28;20044;-73
2022/01/29 09:57:27;;;;;;;20.33;9.75;;;9.40;99.90;;;;;;5054423;28;20037;-74
2022/01/29 09:59:53;;;;;;;20.88;9.40;;;9.40;99.90;;;;;;5054648;28;20041;-74
2022/01/29 10:02:19;;;;;;;19.55;9.65;;;9.40;99.90;;;;;;5055043;28;20375;-74
2022/01/29 10:04:51;;;;;;;14.38;8.90;;;9.40;99.90;;;;;;5054517;28;20124;-74
2022/01/29 10:07:19;;;;;;;18.98;9.43;;;9.40;99.90;;;;;;5054665;28;20037;-72
2022/01/29 10:09:46;;;;;;;15.55;8.95;;;9.50;99.90;;;;;;5053944;28;20509;-73
2022/01/29 10:12:21;;;;;;;15.88;7.57;;;9.50;99.90;;;;;;5054029;28;20386;-73
2022/01/29 10:14:51;;;;;;;18.80;8.43;;;9.50;99.90;;;;;;5054523;28;20037;-73
2022/01/29 10:17:36;;;;;;;;;;;9.50;99.90;;;;;;5055236;28;20048;-72
2022/01/29 10:20:10;;;;;;;15.38;8.20;;;9.50;99.90;;;;;;5054127;28;19921;-72
2022/01/29 10:22:37;;;;;;;13.85;8.38;;;9.60;99.90;;;;;;5036909;28;20368;-73
2022/01/29 10:25:13;;;;;;;16.13;7.15;;;9.60;99.90;;;;;;5054128;28;20045;-73
2022/01/29 10:27:39;;;;;;;18.05;7.88;;;9.60;99.90;;;;;;5054511;28;20083;-72
2022/01/29 10:30:10;;;;;;;15.38;7.25;;;9.60;99.90;;;;;;5054328;28;20128;-71
2022/01/29 10:32:35;;;;;;;13.68;7.85;;;9.60;99.90;;;;;;5053833;28;20395;-71
2022/01/29 10:35:02;;;;;;;12.95;7.60;;;9.60;99.90;;;;;;5053717;28;20476;-72
2022/01/29 10:37:29;;;;;;;11.85;6.70;;;9.70;99.90;;;;;;5056403;28;20029;-73
2022/01/29 10:40:15;;;;;;;16.20;7.68;;;9.70;99.90;;;;;;5073952;28;20048;-72
2022/01/29 10:42:41;;;;;;;13.65;7.78;;;9.70;99.90;;;;;;5074119;28;20090;-73
2022/01/29 10:45:08;;;;;;;11.90;7.25;;;9.70;99.90;;;;;;5073677;28;20033;-73
2022/01/29 10:47:57;;;;;;;14.98;6.40;;;9.70;99.90;;;;;;5073416;28;20039;-72
2022/01/29 10:50:24;;;;;;;12.82;6.90;;;9.70;99.90;;;;;;5073599;28;20482;-73
2022/01/29 10:52:49;;;;;;;11.27;6.78;;;9.70;99.90;;;;;;5056900;28;20496;-73
2022/01/29 10:55:15;;;;;;;14.32;6.20;;;9.80;99.90;;;;;;5040463;28;20499;-74
2022/01/29 10:57:43;;;;;;;14.00;6.95;;;9.80;99.90;;;;;;5057178;28;20037;-74
2022/01/29 11:00:24;;;;;;;12.80;7.00;;;9.80;99.90;;;;;;5053240;28;20463;-73
2022/01/29 11:02:53;;;;;;;14.13;6.43;;;9.90;99.90;;;;;;5053041;28;20052;-73
2022/01/29 11:05:21;;;;;;;9.27;5.43;;;9.90;99.90;;;;;;5053527;28;20044;-72
2022/01/29 11:07:51;;;;;;;15.13;5.97;;;10.00;99.90;;;;;;5053144;28;20542;-73
2022/01/29 11:10:17;;;;;;;12.40;5.78;;;9.90;99.90;;;;;;5053386;28;20084;-72
2022/01/29 11:12:47;;;;;;;14.65;6.30;;;9.90;99.90;;;;;;5052654;28;20064;-72
2022/01/29 11:15:16;;;;;;;10.82;5.47;;;10.00;99.90;;;;;;5052971;28;20052;-72
2022/01/29 11:17:43;;;;;;;14.02;5.30;;;10.00;99.90;;;;;;5036752;28;20056;-72
2022/01/29 11:20:10;;;;;;;8.68;3.88;;;10.00;99.90;;;;;;5036737;28;20037;-72
2022/01/29 11:22:38;;;;;;;9.50;4.45;;;10.10;99.90;;;;;;5052888;28;20082;-72
2022/01/29 11:25:31;;;;;;;11.30;4.57;;;10.10;99.90;;;;;;5052646;28;20036;-73
2022/01/29 11:28:17;;;;;;;9.35;2.92;;;10.20;99.90;;;;;;5060931;28;20040;-73
2022/01/29 11:30:44;;;;;;;9.43;2.95;;;10.20;99.90;;;;;;5072799;28;20510;-73
2022/01/29 11:33:10;;;;;;;11.77;3.08;;;10.30;99.90;;;;;;5072540;28;20059;-72
2022/01/29 11:35:56;;;;;;;8.80;3.20;;;10.30;99.90;;;;;;5072140;28;20418;-72
2022/01/29 11:38:33;;;;;;;8.55;2.88;;;10.30;99.90;;;;;;5072843;28;20501;-73
2022/01/29 11:41:04;;;;;;;9.32;2.70;;;10.30;99.90;;;;;;5072732;28;20483;-72
2022/01/29 11:43:38;;;;;;;8.65;3.10;;;10.30;99.90;;;;;;5072567;28;20395;-71
2022/01/29 11:46:06;;;;;;;9.85;2.80;;;10.40;99.90;;;;;;5072416;28;20127;-72
2022/01/29 11:48:33;;;;;;;8.80;2.83;;;10.40;99.90;;;;;;5068934;28;20116;-72
2022/01/29 11:51:05;;;;;;;4.78;2.53;;;10.40;99.90;;;;;;5052805;28;20091;-74
2022/01/29 11:53:46;;;;;;;8.43;3.08;;;10.50;99.90;;;;;;5053031;28;20064;-72
2022/01/29 11:56:31;;;;;;;9.90;3.30;;;10.40;99.90;;;;;;5052259;28;20037;-73
2022/01/29 11:59:27;;;;;;;10.65;2.70;;;10.50;99.90;;;;;;5036236;28;20044;-75
2022/01/29 12:01:56;;;;;;;6.35;2.28;;;10.50;99.90;;;;;;5058531;28;20036;-73
2022/01/29 12:04:43;;;;;;;9.52;2.25;;;10.50;99.90;;;;;;5072173;28;20055;-73
2022/01/29 12:07:13;;;;;;;6.20;2.05;;;10.50;99.90;;;;;;5065621;28;20223;-73
2022/01/29 12:09:42;;;;;;;;;;;10.60;99.90;;;;;;5052588;28;20120;-72
2022/01/29 12:12:22;;;;;;;10.80;2.70;;;10.50;99.90;;;;;;5052436;28;19923;-73
2022/01/29 12:14:49;;;;;;;;;;;10.60;99.90;;;;;;5052793;28;20041;-74
2022/01/29 12:17:44;;;;;;;7.50;2.55;;;10.60;99.90;;;;;;5052011;28;19967;-73
2022/01/29 12:20:18;;;;;;;7.63;2.42;;;10.60;99.90;;;;;;5051974;28;20128;-74
2022/01/29 12:22:44;;;;;;;9.88;3.17;;;10.60;99.90;;;;;;5052996;28;20039;-76
2022/01/29 12:25:12;;;;;;;9.20;2.33;;;10.60;99.90;;;;;;5071826;28;20045;-73
2022/01/29 12:27:44;;;;;;;7.97;2.55;;;10.60;99.90;;;;;;5045225;28;20052;-74
2022/01/29 12:30:12;;;;;;;9.13;2.17;;;10.70;99.90;;;;;;5039799;28;20487;-73
2022/01/29 12:32:37;;;;;;;10.00;2.38;;;10.60;99.90;;;;;;5040481;28;20041;-74
2022/01/29 12:35:04;;;;;;;5.03;1.75;;;10.70;99.90;;;;;;5056592;28;20044;-74
2022/01/29 12:37:30;;;;;;;5.82;2.47;;;10.70;99.90;;;;;;5056378;28;20128;-74
2022/01/29 12:40:21;;;;;;;6.10;1.90;;;10.70;99.90;;;;;;5039499;28;20040;-75
2022/01/29 12:42:56;;;;;;;11.98;2.60;;;10.70;99.90;;;;;;5054159;28;20135;-74
2022/01/29 12:45:24;;;;;;;7.95;2.05;;;10.70;99.90;;;;;;5056962;28;20112;-73
2022/01/29 12:47:50;;;;;;;10.70;2.78;;;10.70;99.90;;;;;;5074812;28;20041;-74
2022/01/29 12:50:21;;;;;;;11.30;3.35;;;10.70;99.90;;;;;;5074423;28;20374;-74
2022/01/29 12:52:47;;;;;;;11.35;3.28;;;10.70;99.90;;;;;;5058203;28;20498;-73
2022/01/29 12:55:13;;;;;;;13.88;3.63;;;10.70;99.90;;;;;;5074792;28;20041;-74
2022/01/29 12:57:49;;;;;;;6.45;2.40;;;10.70;99.90;;;;;;5075019;28;20493;-77